sensor_id;sensor_type;location;lat;lon;timestamp;P1;durP1;ratioP1;P2;durP2;ratioP2
69253;SDS011;56364;41.816;12.448;2023-12-20T00:01:06;25.30;;;10.52;;
69253;SDS011;56364;41.816;12.448;2023-12-20T00:03:32;29.05;;;11.90;;
69253;SDS011;56364;41.816;12.448;2023-12-20T00:05:58;30.30;;;11.73;;
69253;SDS011;56364;41.816;12.448;2023-12-20T00:08:24;28.27;;;11.75;;
69253;SDS011;56364;41.816;12.448;2023-12-20T00:10:50;31.15;;;13.63;;
69253;SDS011;56364;41.816;12.448;2023-12-20T00:13:16;28.60;;;13.18;;
69253;SDS011;56364;41.816;12.448;2023-12-20T00:15:42;28.25;;;12.50;;
69253;SDS011;56364;41.816;12.448;2023-12-20T00:18:08;25.08;;;11.40;;
69253;SDS011;56364;41.816;12.448;2023-12-20T00:20:34;27.35;;;12.82;;
69253;SDS011;56364;41.816;12.448;2023-12-20T00:23:01;35.17;;;13.90;;
69253;SDS011;56364;41.816;12.448;2023-12-20T00:25:28;28.25;;;12.00;;
69253;SDS011;56364;41.816;12.448;2023-12-20T00:27:54;25.08;;;12.20;;
69253;SDS011;56364;41.816;12.448;2023-12-20T00:30:20;26.27;;;11.07;;
69253;SDS011;56364;41.816;12.448;2023-12-20T00:32:46;37.42;;;11.45;;
69253;SDS011;56364;41.816;12.448;2023-12-20T00:35:13;31.75;;;12.82;;
69253;SDS011;56364;41.816;12.448;2023-12-20T00:37:39;30.73;;;12.98;;
69253;SDS011;56364;41.816;12.448;2023-12-20T00:40:05;22.98;;;10.93;;
69253;SDS011;56364;41.816;12.448;2023-12-20T00:42:32;28.60;;;12.80;;
69253;SDS011;56364;41.816;12.448;2023-12-20T00:44:58;28.27;;;13.15;;
69253;SDS011;56364;41.816;12.448;2023-12-20T00:47:24;24.65;;;12.05;;
69253;SDS011;56364;41.816;12.448;2023-12-20T00:49:51;29.20;;;11.93;;
69253;SDS011;56364;41.816;12.448;2023-12-20T00:52:19;38.03;;;13.88;;
69253;SDS011;56364;41.816;12.448;2023-12-20T00:54:53;27.10;;;13.52;;
69253;SDS011;56364;41.816;12.448;2023-12-20T00:57:19;27.88;;;13.43;;
69253;SDS011;56364;41.816;12.448;2023-12-20T00:59:54;30.02;;;14.52;;
69253;SDS011;56364;41.816;12.448;2023-12-20T01:02:21;31.05;;;14.27;;
69253;SDS011;56364;41.816;12.448;2023-12-20T01:04:47;30.30;;;13.57;;
69253;SDS011;56364;41.816;12.448;2023-12-20T01:07:13;30.00;;;13.15;;
69253;SDS011;56364;41.816;12.448;2023-12-20T01:09:39;30.98;;;13.02;;
69253;SDS011;56364;41.816;12.448;2023-12-20T01:12:05;26.60;;;14.18;;
69253;SDS011;56364;41.816;12.448;2023-12-20T01:14:31;28.88;;;14.32;;
69253;SDS011;56364;41.816;12.448;2023-12-20T01:16:57;30.42;;;15.32;;
69253;SDS011;56364;41.816;12.448;2023-12-20T01:19:24;37.22;;;13.63;;
69253;SDS011;56364;41.816;12.448;2023-12-20T01:21:50;36.22;;;13.63;;
69253;SDS011;56364;41.816;12.448;2023-12-20T01:24:16;32.00;;;13.70;;
69253;SDS011;56364;41.816;12.448;2023-12-20T01:26:42;38.05;;;15.45;;
69253;SDS011;56364;41.816;12.448;2023-12-20T01:29:08;37.38;;;17.48;;
69253;SDS011;56364;41.816;12.448;2023-12-20T01:31:34;36.17;;;16.60;;
69253;SDS011;56364;41.816;12.448;2023-12-20T01:34:00;43.88;;;16.05;;
69253;SDS011;56364;41.816;12.448;2023-12-20T01:36:26;29.98;;;14.90;;
69253;SDS011;56364;41.816;12.448;2023-12-20T01:38:52;41.75;;;15.63;;
69253;SDS011;56364;41.816;12.448;2023-12-20T01:41:18;31.25;;;16.00;;
69253;SDS011;56364;41.816;12.448;2023-12-20T01:43:44;30.92;;;15.43;;
69253;SDS011;56364;41.816;12.448;2023-12-20T01:46:10;38.30;;;15.38;;
69253;SDS011;56364;41.816;12.448;2023-12-20T01:48:37;34.22;;;17.00;;
69253;SDS011;56364;41.816;12.448;2023-12-20T01:51:03;44.83;;;16.27;;
69253;SDS011;56364;41.816;12.448;2023-12-20T01:55:57;33.75;;;14.20;;
69253;SDS011;56364;41.816;12.448;2023-12-20T02:00:51;30.35;;;13.63;;
69253;SDS011;56364;41.816;12.448;2023-12-20T02:03:17;33.28;;;13.30;;
69253;SDS011;56364;41.816;12.448;2023-12-20T02:08:26;36.28;;;14.23;;
69253;SDS011;56364;41.816;12.448;2023-12-20T02:29:20;29.90;;;15.82;;
69253;SDS011;56364;41.816;12.448;2023-12-20T02:31:46;33.38;;;13.98;;
69253;SDS011;56364;41.816;12.448;2023-12-20T02:34:12;38.97;;;15.82;;
69253;SDS011;56364;41.816;12.448;2023-12-20T02:36:38;26.73;;;12.95;;
69253;SDS011;56364;41.816;12.448;2023-12-20T02:39:04;28.00;;;13.52;;
69253;SDS011;56364;41.816;12.448;2023-12-20T02:41:30;28.85;;;13.43;;
69253;SDS011;56364;41.816;12.448;2023-12-20T02:46:54;30.77;;;14.75;;
69253;SDS011;56364;41.816;12.448;2023-12-20T02:49:20;28.80;;;13.82;;
69253;SDS011;56364;41.816;12.448;2023-12-20T03:09:51;44.78;;;15.40;;
69253;SDS011;56364;41.816;12.448;2023-12-20T03:12:17;29.92;;;13.02;;
69253;SDS011;56364;41.816;12.448;2023-12-20T03:14:44;37.88;;;14.10;;
69253;SDS011;56364;41.816;12.448;2023-12-20T03:17:10;28.77;;;14.35;;
69253;SDS011;56364;41.816;12.448;2023-12-20T03:19:36;37.60;;;15.18;;
69253;SDS011;56364;41.816;12.448;2023-12-20T03:22:10;29.58;;;13.15;;
69253;SDS011;56364;41.816;12.448;2023-12-20T03:24:36;29.17;;;12.90;;
69253;SDS011;56364;41.816;12.448;2023-12-20T03:27:03;37.33;;;13.60;;
69253;SDS011;56364;41.816;12.448;2023-12-20T03:29:29;21.40;;;11.65;;
69253;SDS011;56364;41.816;12.448;2023-12-20T03:31:55;31.85;;;13.63;;
69253;SDS011;56364;41.816;12.448;2023-12-20T03:34:21;40.28;;;13.88;;
69253;SDS011;56364;41.816;12.448;2023-12-20T03:36:50;30.33;;;12.95;;
69253;SDS011;56364;41.816;12.448;2023-12-20T03:39:16;31.13;;;13.82;;
69253;SDS011;56364;41.816;12.448;2023-12-20T03:41:42;30.23;;;14.55;;
69253;SDS011;56364;41.816;12.448;2023-12-20T03:44:08;24.63;;;12.10;;
69253;SDS011;56364;41.816;12.448;2023-12-20T03:46:35;24.83;;;13.57;;
69253;SDS011;56364;41.816;12.448;2023-12-20T03:49:01;28.95;;;13.07;;
69253;SDS011;56364;41.816;12.448;2023-12-20T03:54:06;19.08;;;11.50;;
69253;SDS011;56364;41.816;12.448;2023-12-20T03:56:33;24.27;;;12.98;;
69253;SDS011;56364;41.816;12.448;2023-12-20T04:06:46;38.10;;;15.63;;
69253;SDS011;56364;41.816;12.448;2023-12-20T04:09:27;25.08;;;11.50;;
69253;SDS011;56364;41.816;12.448;2023-12-20T04:11:53;26.83;;;13.95;;
69253;SDS011;56364;41.816;12.448;2023-12-20T04:14:20;25.52;;;12.10;;
69253;SDS011;56364;41.816;12.448;2023-12-20T04:16:46;35.22;;;14.32;;
69253;SDS011;56364;41.816;12.448;2023-12-20T04:19:12;24.73;;;12.90;;
69253;SDS011;56364;41.816;12.448;2023-12-20T04:21:39;24.67;;;12.57;;
69253;SDS011;56364;41.816;12.448;2023-12-20T04:24:05;23.95;;;12.05;;
69253;SDS011;56364;41.816;12.448;2023-12-20T04:26:39;28.25;;;13.38;;
69253;SDS011;56364;41.816;12.448;2023-12-20T04:29:05;29.67;;;12.70;;
69253;SDS011;56364;41.816;12.448;2023-12-20T04:31:31;28.45;;;13.52;;
69253;SDS011;56364;41.816;12.448;2023-12-20T04:33:57;29.17;;;12.88;;
69253;SDS011;56364;41.816;12.448;2023-12-20T04:36:23;29.27;;;12.25;;
69253;SDS011;56364;41.816;12.448;2023-12-20T04:38:52;32.58;;;13.70;;
69253;SDS011;56364;41.816;12.448;2023-12-20T04:43:44;23.77;;;12.35;;
69253;SDS011;56364;41.816;12.448;2023-12-20T04:46:10;36.58;;;14.10;;
69253;SDS011;56364;41.816;12.448;2023-12-20T04:48:37;24.70;;;13.10;;
69253;SDS011;56364;41.816;12.448;2023-12-20T04:54:07;27.63;;;11.20;;
69253;SDS011;56364;41.816;12.448;2023-12-20T04:56:33;26.52;;;11.95;;
69253;SDS011;56364;41.816;12.448;2023-12-20T04:58:59;25.00;;;11.70;;
69253;SDS011;56364;41.816;12.448;2023-12-20T05:01:28;30.50;;;12.50;;
69253;SDS011;56364;41.816;12.448;2023-12-20T05:03:57;30.52;;;12.40;;
69253;SDS011;56364;41.816;12.448;2023-12-20T05:06:23;23.70;;;11.38;;
69253;SDS011;56364;41.816;12.448;2023-12-20T05:12:00;34.05;;;13.85;;
69253;SDS011;56364;41.816;12.448;2023-12-20T05:14:26;24.17;;;11.55;;
69253;SDS011;56364;41.816;12.448;2023-12-20T05:16:52;21.42;;;9.57;;
69253;SDS011;56364;41.816;12.448;2023-12-20T05:19:21;21.85;;;10.30;;
69253;SDS011;56364;41.816;12.448;2023-12-20T05:21:52;31.42;;;11.73;;
69253;SDS011;56364;41.816;12.448;2023-12-20T05:24:18;28.17;;;11.68;;
69253;SDS011;56364;41.816;12.448;2023-12-20T05:26:51;24.35;;;12.05;;
69253;SDS011;56364;41.816;12.448;2023-12-20T05:29:27;20.60;;;10.02;;
69253;SDS011;56364;41.816;12.448;2023-12-20T05:31:55;29.38;;;12.18;;
69253;SDS011;56364;41.816;12.448;2023-12-20T05:34:21;37.90;;;12.75;;
69253;SDS011;56364;41.816;12.448;2023-12-20T05:36:47;31.52;;;13.63;;
69253;SDS011;56364;41.816;12.448;2023-12-20T05:39:14;30.98;;;10.93;;
69253;SDS011;56364;41.816;12.448;2023-12-20T05:41:41;28.15;;;11.90;;
69253;SDS011;56364;41.816;12.448;2023-12-20T05:44:07;25.88;;;10.70;;
69253;SDS011;56364;41.816;12.448;2023-12-20T05:46:35;24.45;;;10.45;;
69253;SDS011;56364;41.816;12.448;2023-12-20T05:49:02;20.83;;;11.35;;
69253;SDS011;56364;41.816;12.448;2023-12-20T06:30:46;23.40;;;10.27;;
69253;SDS011;56364;41.816;12.448;2023-12-20T06:33:15;25.52;;;10.90;;
69253;SDS011;56364;41.816;12.448;2023-12-20T06:38:17;21.08;;;9.93;;
69253;SDS011;56364;41.816;12.448;2023-12-20T06:51:25;23.05;;;11.07;;
69253;SDS011;56364;41.816;12.448;2023-12-20T06:53:52;31.08;;;10.45;;
69253;SDS011;56364;41.816;12.448;2023-12-20T06:56:18;25.05;;;10.45;;
69253;SDS011;56364;41.816;12.448;2023-12-20T06:58:47;20.50;;;9.68;;
69253;SDS011;56364;41.816;12.448;2023-12-20T07:01:33;22.10;;;10.38;;
69253;SDS011;56364;41.816;12.448;2023-12-20T07:03:59;25.02;;;11.88;;
69253;SDS011;56364;41.816;12.448;2023-12-20T07:06:28;30.90;;;11.93;;
69253;SDS011;56364;41.816;12.448;2023-12-20T07:08:54;29.45;;;12.68;;
69253;SDS011;56364;41.816;12.448;2023-12-20T07:11:21;23.02;;;11.75;;
69253;SDS011;56364;41.816;12.448;2023-12-20T07:13:47;29.92;;;13.23;;
69253;SDS011;56364;41.816;12.448;2023-12-20T07:16:13;26.08;;;11.50;;
69253;SDS011;56364;41.816;12.448;2023-12-20T07:18:40;24.25;;;11.43;;
69253;SDS011;56364;41.816;12.448;2023-12-20T07:21:06;31.55;;;12.25;;
69253;SDS011;56364;41.816;12.448;2023-12-20T07:23:33;24.85;;;10.63;;
69253;SDS011;56364;41.816;12.448;2023-12-20T07:25:59;26.25;;;10.43;;
69253;SDS011;56364;41.816;12.448;2023-12-20T07:28:25;32.38;;;11.27;;
69253;SDS011;56364;41.816;12.448;2023-12-20T07:30:51;23.10;;;11.57;;
69253;SDS011;56364;41.816;12.448;2023-12-20T07:33:17;33.25;;;11.27;;
69253;SDS011;56364;41.816;12.448;2023-12-20T07:35:43;35.17;;;10.50;;
69253;SDS011;56364;41.816;12.448;2023-12-20T07:38:10;24.50;;;9.98;;
69253;SDS011;56364;41.816;12.448;2023-12-20T07:40:37;26.42;;;10.82;;
69253;SDS011;56364;41.816;12.448;2023-12-20T07:43:04;28.90;;;12.27;;
69253;SDS011;56364;41.816;12.448;2023-12-20T07:45:30;22.25;;;10.45;;
69253;SDS011;56364;41.816;12.448;2023-12-20T07:47:58;29.58;;;10.85;;
69253;SDS011;56364;41.816;12.448;2023-12-20T07:50:24;28.00;;;9.93;;
69253;SDS011;56364;41.816;12.448;2023-12-20T07:53:29;27.42;;;10.73;;
69253;SDS011;56364;41.816;12.448;2023-12-20T07:55:55;24.38;;;10.85;;
69253;SDS011;56364;41.816;12.448;2023-12-20T07:58:21;20.95;;;10.80;;
69253;SDS011;56364;41.816;12.448;2023-12-20T08:00:47;27.85;;;11.90;;
69253;SDS011;56364;41.816;12.448;2023-12-20T08:03:13;20.77;;;11.00;;
69253;SDS011;56364;41.816;12.448;2023-12-20T08:05:39;20.80;;;10.77;;
69253;SDS011;56364;41.816;12.448;2023-12-20T08:08:06;32.33;;;11.05;;
69253;SDS011;56364;41.816;12.448;2023-12-20T08:10:32;27.85;;;12.02;;
69253;SDS011;56364;41.816;12.448;2023-12-20T08:12:58;28.67;;;11.63;;
69253;SDS011;56364;41.816;12.448;2023-12-20T08:15:24;27.92;;;10.95;;
69253;SDS011;56364;41.816;12.448;2023-12-20T08:17:56;28.58;;;11.35;;
69253;SDS011;56364;41.816;12.448;2023-12-20T08:20:23;25.98;;;11.20;;
69253;SDS011;56364;41.816;12.448;2023-12-20T08:22:49;29.88;;;11.10;;
69253;SDS011;56364;41.816;12.448;2023-12-20T08:25:15;24.17;;;9.00;;
69253;SDS011;56364;41.816;12.448;2023-12-20T08:27:41;30.05;;;10.70;;
69253;SDS011;56364;41.816;12.448;2023-12-20T08:30:10;24.77;;;9.82;;
69253;SDS011;56364;41.816;12.448;2023-12-20T08:32:37;28.77;;;12.23;;
69253;SDS011;56364;41.816;12.448;2023-12-20T08:35:03;21.90;;;9.38;;
69253;SDS011;56364;41.816;12.448;2023-12-20T08:37:29;22.02;;;10.23;;
69253;SDS011;56364;41.816;12.448;2023-12-20T08:39:55;31.88;;;10.85;;
69253;SDS011;56364;41.816;12.448;2023-12-20T08:42:29;24.80;;;10.20;;
69253;SDS011;56364;41.816;12.448;2023-12-20T08:44:57;25.05;;;10.52;;
69253;SDS011;56364;41.816;12.448;2023-12-20T08:47:26;21.77;;;9.98;;
69253;SDS011;56364;41.816;12.448;2023-12-20T08:50:05;22.13;;;10.38;;
69253;SDS011;56364;41.816;12.448;2023-12-20T08:52:31;26.58;;;10.38;;
69253;SDS011;56364;41.816;12.448;2023-12-20T08:54:58;20.80;;;9.25;;
69253;SDS011;56364;41.816;12.448;2023-12-20T08:57:24;28.60;;;11.80;;
69253;SDS011;56364;41.816;12.448;2023-12-20T08:59:50;25.70;;;10.75;;
69253;SDS011;56364;41.816;12.448;2023-12-20T09:02:16;18.20;;;9.88;;
69253;SDS011;56364;41.816;12.448;2023-12-20T09:04:42;28.20;;;11.82;;
69253;SDS011;56364;41.816;12.448;2023-12-20T09:07:30;28.67;;;12.57;;
69253;SDS011;56364;41.816;12.448;2023-12-20T09:10:07;31.38;;;11.32;;
69253;SDS011;56364;41.816;12.448;2023-12-20T09:12:55;30.98;;;11.20;;
69253;SDS011;56364;41.816;12.448;2023-12-20T09:15:24;25.90;;;11.35;;
69253;SDS011;56364;41.816;12.448;2023-12-20T09:17:50;38.85;;;13.07;;
69253;SDS011;56364;41.816;12.448;2023-12-20T09:20:16;32.17;;;12.60;;
69253;SDS011;56364;41.816;12.448;2023-12-20T09:22:53;22.73;;;11.35;;
69253;SDS011;56364;41.816;12.448;2023-12-20T09:25:19;23.67;;;10.93;;
69253;SDS011;56364;41.816;12.448;2023-12-20T09:27:47;27.60;;;12.43;;
69253;SDS011;56364;41.816;12.448;2023-12-20T09:30:13;27.65;;;12.18;;
69253;SDS011;56364;41.816;12.448;2023-12-20T09:32:39;29.92;;;10.88;;
69253;SDS011;56364;41.816;12.448;2023-12-20T09:35:06;29.50;;;12.00;;
69253;SDS011;56364;41.816;12.448;2023-12-20T09:37:39;24.50;;;11.40;;
69253;SDS011;56364;41.816;12.448;2023-12-20T09:40:29;28.65;;;11.85;;
69253;SDS011;56364;41.816;12.448;2023-12-20T09:43:03;31.85;;;12.75;;
69253;SDS011;56364;41.816;12.448;2023-12-20T09:45:30;25.27;;;11.82;;
69253;SDS011;56364;41.816;12.448;2023-12-20T09:47:58;29.75;;;12.32;;
69253;SDS011;56364;41.816;12.448;2023-12-20T09:50:25;30.52;;;12.48;;
69253;SDS011;56364;41.816;12.448;2023-12-20T09:52:53;28.00;;;10.98;;
69253;SDS011;56364;41.816;12.448;2023-12-20T09:55:21;28.02;;;12.38;;
69253;SDS011;56364;41.816;12.448;2023-12-20T10:00:16;32.85;;;11.25;;
69253;SDS011;56364;41.816;12.448;2023-12-20T10:02:50;30.08;;;12.25;;
69253;SDS011;56364;41.816;12.448;2023-12-20T10:10:29;30.52;;;12.25;;
69253;SDS011;56364;41.816;12.448;2023-12-20T10:13:01;28.52;;;11.43;;
69253;SDS011;56364;41.816;12.448;2023-12-20T10:15:33;31.85;;;12.57;;
69253;SDS011;56364;41.816;12.448;2023-12-20T10:20:29;24.05;;;11.85;;
69253;SDS011;56364;41.816;12.448;2023-12-20T10:23:04;28.83;;;12.07;;
69253;SDS011;56364;41.816;12.448;2023-12-20T10:25:55;32.83;;;12.35;;
69253;SDS011;56364;41.816;12.448;2023-12-20T10:28:22;22.75;;;11.95;;
69253;SDS011;56364;41.816;12.448;2023-12-20T10:30:52;26.08;;;11.57;;
69253;SDS011;56364;41.816;12.448;2023-12-20T10:33:28;29.35;;;12.23;;
69253;SDS011;56364;41.816;12.448;2023-12-20T10:35:55;37.15;;;13.25;;
69253;SDS011;56364;41.816;12.448;2023-12-20T10:38:21;37.70;;;12.93;;
69253;SDS011;56364;41.816;12.448;2023-12-20T10:40:48;25.92;;;13.30;;
69253;SDS011;56364;41.816;12.448;2023-12-20T10:50:54;28.58;;;12.95;;
69253;SDS011;56364;41.816;12.448;2023-12-20T10:53:21;32.53;;;12.40;;
69253;SDS011;56364;41.816;12.448;2023-12-20T10:59:01;26.20;;;11.82;;
69253;SDS011;56364;41.816;12.448;2023-12-20T11:01:30;27.38;;;12.70;;
69253;SDS011;56364;41.816;12.448;2023-12-20T11:09:01;24.65;;;12.52;;
69253;SDS011;56364;41.816;12.448;2023-12-20T11:12:22;28.27;;;12.25;;
69253;SDS011;56364;41.816;12.448;2023-12-20T11:14:22;26.20;;;12.32;;
69253;SDS011;56364;41.816;12.448;2023-12-20T11:16:49;29.25;;;11.35;;
69253;SDS011;56364;41.816;12.448;2023-12-20T11:19:16;27.58;;;11.30;;
69253;SDS011;56364;41.816;12.448;2023-12-20T11:21:42;25.73;;;11.07;;
69253;SDS011;56364;41.816;12.448;2023-12-20T11:24:09;26.25;;;12.18;;
69253;SDS011;56364;41.816;12.448;2023-12-20T11:42:10;24.95;;;11.45;;
69253;SDS011;56364;41.816;12.448;2023-12-20T11:44:39;25.50;;;10.73;;
69253;SDS011;56364;41.816;12.448;2023-12-20T11:47:08;28.50;;;11.32;;
69253;SDS011;56364;41.816;12.448;2023-12-20T11:49:34;22.77;;;11.63;;
69253;SDS011;56364;41.816;12.448;2023-12-20T11:52:00;24.77;;;10.65;;
69253;SDS011;56364;41.816;12.448;2023-12-20T11:56:52;30.25;;;11.00;;
69253;SDS011;56364;41.816;12.448;2023-12-20T11:59:19;29.63;;;11.23;;
69253;SDS011;56364;41.816;12.448;2023-12-20T12:01:48;23.45;;;11.20;;
69253;SDS011;56364;41.816;12.448;2023-12-20T12:04:15;25.63;;;10.80;;
69253;SDS011;56364;41.816;12.448;2023-12-20T12:06:43;29.77;;;11.38;;
69253;SDS011;56364;41.816;12.448;2023-12-20T12:09:09;25.75;;;11.13;;
69253;SDS011;56364;41.816;12.448;2023-12-20T12:11:41;23.20;;;11.18;;
69253;SDS011;56364;41.816;12.448;2023-12-20T12:14:07;22.73;;;10.63;;
69253;SDS011;56364;41.816;12.448;2023-12-20T12:16:33;22.77;;;11.02;;
69253;SDS011;56364;41.816;12.448;2023-12-20T12:21:25;27.35;;;10.93;;
69253;SDS011;56364;41.816;12.448;2023-12-20T12:26:18;18.90;;;10.35;;
69253;SDS011;56364;41.816;12.448;2023-12-20T12:28:47;20.90;;;9.48;;
69253;SDS011;56364;41.816;12.448;2023-12-20T12:31:16;24.27;;;10.13;;
69253;SDS011;56364;41.816;12.448;2023-12-20T12:33:42;22.45;;;9.15;;
69253;SDS011;56364;41.816;12.448;2023-12-20T12:36:09;22.80;;;10.40;;
69253;SDS011;56364;41.816;12.448;2023-12-20T12:38:39;23.80;;;10.88;;
69253;SDS011;56364;41.816;12.448;2023-12-20T12:41:07;26.17;;;11.32;;
69253;SDS011;56364;41.816;12.448;2023-12-20T12:43:35;19.65;;;10.13;;
69253;SDS011;56364;41.816;12.448;2023-12-20T12:46:01;19.98;;;10.68;;
69253;SDS011;56364;41.816;12.448;2023-12-20T12:48:27;19.23;;;11.02;;
69253;SDS011;56364;41.816;12.448;2023-12-20T12:50:53;16.27;;;9.13;;
69253;SDS011;56364;41.816;12.448;2023-12-20T12:53:23;21.98;;;10.35;;
69253;SDS011;56364;41.816;12.448;2023-12-20T12:55:49;17.92;;;9.02;;
69253;SDS011;56364;41.816;12.448;2023-12-20T12:58:16;17.20;;;9.15;;
69253;SDS011;56364;41.816;12.448;2023-12-20T13:00:42;12.10;;;7.72;;
69253;SDS011;56364;41.816;12.448;2023-12-20T13:03:08;14.35;;;7.18;;
69253;SDS011;56364;41.816;12.448;2023-12-20T13:05:34;17.30;;;7.72;;
69253;SDS011;56364;41.816;12.448;2023-12-20T13:08:00;17.17;;;7.95;;
69253;SDS011;56364;41.816;12.448;2023-12-20T13:10:26;16.30;;;7.38;;
69253;SDS011;56364;41.816;12.448;2023-12-20T13:12:55;24.65;;;8.50;;
69253;SDS011;56364;41.816;12.448;2023-12-20T13:15:21;11.55;;;6.97;;
69253;SDS011;56364;41.816;12.448;2023-12-20T13:17:47;11.55;;;6.25;;
69253;SDS011;56364;41.816;12.448;2023-12-20T13:20:13;11.02;;;5.97;;
69253;SDS011;56364;41.816;12.448;2023-12-20T13:22:40;11.70;;;6.45;;
69253;SDS011;56364;41.816;12.448;2023-12-20T13:25:06;24.27;;;6.57;;
69253;SDS011;56364;41.816;12.448;2023-12-20T13:27:32;18.02;;;5.78;;
69253;SDS011;56364;41.816;12.448;2023-12-20T13:29:58;11.55;;;4.97;;
69253;SDS011;56364;41.816;12.448;2023-12-20T13:32:28;12.52;;;5.75;;
69253;SDS011;56364;41.816;12.448;2023-12-20T13:34:54;10.75;;;5.22;;
69253;SDS011;56364;41.816;12.448;2023-12-20T13:37:20;9.82;;;5.72;;
69253;SDS011;56364;41.816;12.448;2023-12-20T13:39:46;13.10;;;5.88;;
69253;SDS011;56364;41.816;12.448;2023-12-20T13:42:15;12.65;;;6.22;;
69253;SDS011;56364;41.816;12.448;2023-12-20T13:44:44;9.60;;;5.63;;
69253;SDS011;56364;41.816;12.448;2023-12-20T13:47:13;10.75;;;5.78;;
69253;SDS011;56364;41.816;12.448;2023-12-20T13:49:39;13.20;;;5.78;;
69253;SDS011;56364;41.816;12.448;2023-12-20T13:52:05;12.68;;;6.10;;
69253;SDS011;56364;41.816;12.448;2023-12-20T13:54:33;8.30;;;4.43;;
69253;SDS011;56364;41.816;12.448;2023-12-20T13:56:59;14.60;;;4.65;;
69253;SDS011;56364;41.816;12.448;2023-12-20T13:59:25;8.77;;;4.20;;
69253;SDS011;56364;41.816;12.448;2023-12-20T14:01:51;12.75;;;4.30;;
69253;SDS011;56364;41.816;12.448;2023-12-20T14:04:17;15.45;;;4.75;;
69253;SDS011;56364;41.816;12.448;2023-12-20T14:06:43;11.52;;;3.85;;
69253;SDS011;56364;41.816;12.448;2023-12-20T14:09:10;6.43;;;3.22;;
69253;SDS011;56364;41.816;12.448;2023-12-20T14:11:37;6.97;;;3.15;;
69253;SDS011;56364;41.816;12.448;2023-12-20T14:14:06;9.63;;;3.83;;
69253;SDS011;56364;41.816;12.448;2023-12-20T14:16:33;7.10;;;3.90;;
69253;SDS011;56364;41.816;12.448;2023-12-20T14:18:59;9.05;;;4.05;;
69253;SDS011;56364;41.816;12.448;2023-12-20T14:21:30;9.25;;;3.97;;
69253;SDS011;56364;41.816;12.448;2023-12-20T14:23:56;11.85;;;4.70;;
69253;SDS011;56364;41.816;12.448;2023-12-20T14:26:22;6.18;;;3.78;;
69253;SDS011;56364;41.816;12.448;2023-12-20T14:28:48;9.80;;;3.30;;
69253;SDS011;56364;41.816;12.448;2023-12-20T14:31:17;6.70;;;2.70;;
69253;SDS011;56364;41.816;12.448;2023-12-20T14:33:43;5.75;;;2.70;;
69253;SDS011;56364;41.816;12.448;2023-12-20T14:36:11;8.73;;;2.85;;
69253;SDS011;56364;41.816;12.448;2023-12-20T14:38:37;6.78;;;2.60;;
69253;SDS011;56364;41.816;12.448;2023-12-20T14:41:03;7.68;;;3.05;;
69253;SDS011;56364;41.816;12.448;2023-12-20T14:43:31;6.15;;;2.78;;
69253;SDS011;56364;41.816;12.448;2023-12-20T14:45:57;5.63;;;2.83;;
69253;SDS011;56364;41.816;12.448;2023-12-20T14:50:49;4.88;;;2.65;;
69253;SDS011;56364;41.816;12.448;2023-12-20T14:53:16;9.23;;;3.00;;
69253;SDS011;56364;41.816;12.448;2023-12-20T14:55:43;5.03;;;2.28;;
69253;SDS011;56364;41.816;12.448;2023-12-20T14:58:09;7.80;;;2.55;;
69253;SDS011;56364;41.816;12.448;2023-12-20T15:03:07;6.43;;;2.13;;
69253;SDS011;56364;41.816;12.448;2023-12-20T15:05:33;7.20;;;2.50;;
69253;SDS011;56364;41.816;12.448;2023-12-20T15:08:00;5.60;;;2.47;;
69253;SDS011;56364;41.816;12.448;2023-12-20T15:10:30;5.93;;;2.33;;
69253;SDS011;56364;41.816;12.448;2023-12-20T15:12:56;7.80;;;2.90;;
69253;SDS011;56364;41.816;12.448;2023-12-20T15:15:22;5.45;;;2.42;;
69253;SDS011;56364;41.816;12.448;2023-12-20T15:17:49;5.15;;;2.60;;
69253;SDS011;56364;41.816;12.448;2023-12-20T15:20:15;6.90;;;3.35;;
69253;SDS011;56364;41.816;12.448;2023-12-20T15:22:41;5.38;;;3.00;;
69253;SDS011;56364;41.816;12.448;2023-12-20T15:25:10;6.97;;;3.22;;
69253;SDS011;56364;41.816;12.448;2023-12-20T15:27:37;8.13;;;3.38;;
69253;SDS011;56364;41.816;12.448;2023-12-20T15:30:04;7.72;;;2.95;;
69253;SDS011;56364;41.816;12.448;2023-12-20T15:32:34;6.53;;;3.40;;
69253;SDS011;56364;41.816;12.448;2023-12-20T15:35:01;10.30;;;3.55;;
69253;SDS011;56364;41.816;12.448;2023-12-20T15:37:27;9.50;;;3.30;;
69253;SDS011;56364;41.816;12.448;2023-12-20T15:39:53;17.15;;;3.90;;
69253;SDS011;56364;41.816;12.448;2023-12-20T15:42:19;8.10;;;3.70;;
69253;SDS011;56364;41.816;12.448;2023-12-20T15:44:45;12.05;;;3.72;;
69253;SDS011;56364;41.816;12.448;2023-12-20T15:47:11;8.85;;;3.90;;
69253;SDS011;56364;41.816;12.448;2023-12-20T15:49:37;7.90;;;3.67;;
69253;SDS011;56364;41.816;12.448;2023-12-20T15:52:04;8.25;;;3.72;;
69253;SDS011;56364;41.816;12.448;2023-12-20T15:56:56;7.93;;;3.40;;
69253;SDS011;56364;41.816;12.448;2023-12-20T16:01:48;11.35;;;3.55;;
69253;SDS011;56364;41.816;12.448;2023-12-20T16:04:14;12.57;;;3.88;;
69253;SDS011;56364;41.816;12.448;2023-12-20T16:06:40;8.30;;;3.72;;
69253;SDS011;56364;41.816;12.448;2023-12-20T16:09:06;8.57;;;4.00;;
69253;SDS011;56364;41.816;12.448;2023-12-20T16:11:32;11.88;;;4.35;;
69253;SDS011;56364;41.816;12.448;2023-12-20T16:14:01;11.77;;;4.65;;
69253;SDS011;56364;41.816;12.448;2023-12-20T16:16:27;9.45;;;4.40;;
69253;SDS011;56364;41.816;12.448;2023-12-20T16:18:53;11.50;;;5.22;;
69253;SDS011;56364;41.816;12.448;2023-12-20T16:21:19;10.73;;;5.05;;
69253;SDS011;56364;41.816;12.448;2023-12-20T16:23:55;10.88;;;5.63;;
69253;SDS011;56364;41.816;12.448;2023-12-20T16:26:24;13.10;;;4.88;;
69253;SDS011;56364;41.816;12.448;2023-12-20T16:28:50;8.20;;;4.72;;
69253;SDS011;56364;41.816;12.448;2023-12-20T16:31:16;10.13;;;4.47;;
69253;SDS011;56364;41.816;12.448;2023-12-20T16:33:45;11.63;;;4.28;;
69253;SDS011;56364;41.816;12.448;2023-12-20T16:36:11;9.38;;;4.45;;
69253;SDS011;56364;41.816;12.448;2023-12-20T16:38:37;9.75;;;3.85;;
69253;SDS011;56364;41.816;12.448;2023-12-20T16:41:04;9.90;;;4.60;;
69253;SDS011;56364;41.816;12.448;2023-12-20T16:45:59;10.18;;;4.15;;
69253;SDS011;56364;41.816;12.448;2023-12-20T16:48:30;12.02;;;4.13;;
69253;SDS011;56364;41.816;12.448;2023-12-20T16:51:02;9.35;;;4.43;;
69253;SDS011;56364;41.816;12.448;2023-12-20T16:53:49;11.23;;;3.85;;
69253;SDS011;56364;41.816;12.448;2023-12-20T16:56:18;11.13;;;3.70;;
69253;SDS011;56364;41.816;12.448;2023-12-20T16:58:48;13.48;;;3.72;;
69253;SDS011;56364;41.816;12.448;2023-12-20T17:01:15;9.63;;;4.38;;
69253;SDS011;56364;41.816;12.448;2023-12-20T17:03:41;11.63;;;4.07;;
69253;SDS011;56364;41.816;12.448;2023-12-20T17:08:40;9.75;;;3.80;;
69253;SDS011;56364;41.816;12.448;2023-12-20T17:11:08;11.93;;;3.95;;
69253;SDS011;56364;41.816;12.448;2023-12-20T17:13:34;14.63;;;4.53;;
69253;SDS011;56364;41.816;12.448;2023-12-20T17:16:01;8.13;;;3.45;;
69253;SDS011;56364;41.816;12.448;2023-12-20T17:18:27;12.25;;;4.30;;
69253;SDS011;56364;41.816;12.448;2023-12-20T17:20:53;7.50;;;3.72;;